Time;durP1;ratioP1;P1;durP2;ratioP2;P2;SDS_P1;SDS_P2;PMS_P1;PMS_P2;Temp;Humidity;BMP_temperature;BMP_pressure;BME280_temperature;BME280_humidity;BME280_pressure;Samples;Min_cycle;Max_cycle;Signal;HPM_P1;HPM_P2
2023/08/23 00:01:37;;;;;;;;;;;19.90;99.90;;;;;;5093681;28;19923;-72
2023/08/23 00:04:03;;;;;;;;;;;19.90;99.90;;;;;;5092672;28;20349;-72
2023/08/23 00:06:28;;;;;;;;;;;19.90;99.90;;;;;;5092746;28;20369;-71
2023/08/23 00:08:54;;;;;;;;;;;19.90;99.90;;;;;;5093934;28;20223;-72
2023/08/23 00:11:19;;;;;;;;;;;19.90;99.90;;;;;;5093296;28;20249;-72
2023/08/23 00:13:45;;;;;;;;;;;19.90;99.90;;;;;;5093257;28;19920;-71
2023/08/23 00:16:11;;;;;;;;;;;19.90;99.90;;;;;;5093359;28;20334;-72
2023/08/23 00:18:36;;;;;;;;;;;19.90;99.90;;;;;;5093138;28;19916;-72
2023/08/23 00:21:02;;;;;;;;;;;19.80;99.90;;;;;;5093095;28;20334;-72
2023/08/23 00:23:28;;;;;;;;;;;19.80;99.90;;;;;;5093395;28;19916;-71
2023/08/23 00:25:53;;;;;;;;;;;19.90;99.90;;;;;;5092872;28;19938;-71
2023/08/23 00:28:19;;;;;;;;;;;19.80;99.90;;;;;;5092742;28;19943;-72
2023/08/23 00:30:49;;;;;;;;;;;19.80;99.90;;;;;;5092966;28;19912;-72
2023/08/23 00:33:14;;;;;;;;;;;19.80;99.90;;;;;;5092547;28;19939;-71
2023/08/23 00:35:40;;;;;;;;;;;19.80;99.90;;;;;;5093288;28;19999;-72
2023/08/23 00:38:05;;;;;;;;;;;19.80;99.90;;;;;;5092768;28;20345;-71
2023/08/23 00:40:31;;;;;;;;;;;19.80;99.90;;;;;;5092536;28;19920;-71
2023/08/23 00:42:57;;;;;;;;;;;19.80;99.90;;;;;;5092797;28;19927;-72
2023/08/23 00:45:22;;;;;;;;;;;19.80;99.90;;;;;;5091347;28;19913;-72
2023/08/23 00:47:48;;;;;;;;;;;19.90;99.90;;;;;;5091913;28;20023;-72
2023/08/23 00:50:14;;;;;;;;;;;19.80;99.90;;;;;;5092516;28;19912;-72
2023/08/23 00:52:40;;;;;;;;;;;19.80;99.90;;;;;;5091601;28;20016;-72
2023/08/23 00:55:06;;;;;;;;;;;19.90;99.90;;;;;;5091579;28;19912;-72
2023/08/23 00:57:31;;;;;;;;;;;19.80;99.90;;;;;;5092336;28;19916;-71
2023/08/23 00:59:57;;;;;;;;;;;19.80;99.90;;;;;;5091143;28;19912;-71
2023/08/23 01:02:22;;;;;;;;;;;19.80;99.90;;;;;;5093073;28;19900;-72
2023/08/23 01:04:48;;;;;;;;;;;19.90;99.90;;;;;;5091051;28;19912;-71
2023/08/23 01:07:17;;;;;;;;;;;19.90;99.90;;;;;;5092292;28;19995;-71
2023/08/23 01:10:18;;;;;;;;;;;20.00;99.90;;;;;;5091110;28;19935;-71
2023/08/23 01:12:54;;;;;;;;;;;19.90;99.90;;;;;;5010022;28;20008;-72
2023/08/23 01:15:20;;;;;;;;;;;20.00;99.90;;;;;;5080022;28;19939;-71
2023/08/23 01:17:48;;;;;;;;;;;19.90;99.90;;;;;;5092619;28;19962;-72
2023/08/23 01:20:14;;;;;;;;;;;19.90;99.90;;;;;;5091941;28;19924;-71
2023/08/23 01:22:44;;;;;;;;;;;19.80;99.90;;;;;;5090871;28;19958;-72
2023/08/23 01:25:10;;;;;;;;;;;19.90;99.90;;;;;;5091047;28;19965;-72
2023/08/23 01:27:35;;;;;;;;;;;19.80;99.90;;;;;;5091977;28;19949;-72
2023/08/23 01:30:01;;;;;;;;;;;19.80;99.90;;;;;;5091845;28;19939;-73
2023/08/23 01:32:32;;;;;;;;;;;19.80;99.90;;;;;;5092250;28;19991;-72
2023/08/23 01:35:11;;;;;;;;;;;19.80;99.90;;;;;;5091366;28;20017;-72
2023/08/23 01:37:42;;;;;;;;;;;19.80;99.90;;;;;;5092001;28;19923;-72
2023/08/23 01:40:09;;;;;;;;;;;19.70;99.90;;;;;;5091799;28;19916;-72
2023/08/23 01:42:35;;;;;;;;;;;19.70;99.90;;;;;;5091924;28;19912;-73
2023/08/23 01:45:02;;;;;;;;;;;19.70;99.90;;;;;;5091826;28;20015;-72
2023/08/23 01:47:28;;;;;;;;;;;19.70;99.90;;;;;;5092386;28;20216;-72
2023/08/23 01:49:54;;;;;;;;;;;19.80;99.90;;;;;;5090609;28;19923;-72
2023/08/23 01:52:19;;;;;;;;;;;19.70;99.90;;;;;;5090618;28;20262;-72
2023/08/23 01:54:45;;;;;;;;;;;19.60;99.90;;;;;;5091717;28;19923;-72
2023/08/23 01:57:10;;;;;;;;;;;19.60;99.90;;;;;;5091782;28;19912;-72
2023/08/23 01:59:37;;;;;;;;;;;19.50;99.90;;;;;;5091928;28;19971;-72
2023/08/23 02:02:03;;;;;;;;;;;19.60;99.90;;;;;;5091627;28;19995;-71
2023/08/23 02:04:29;;;;;;;;;;;19.60;99.90;;;;;;5091845;28;20296;-71
2023/08/23 02:06:54;;;;;;;;;;;19.60;99.90;;;;;;5091568;28;19923;-73
2023/08/23 02:09:20;;;;;;;;;;;19.60;99.90;;;;;;5091698;28;19923;-72
2023/08/23 02:11:45;;;;;;;;;;;19.60;99.90;;;;;;5092107;28;19998;-71
2023/08/23 02:14:11;;;;;;;;;;;19.50;99.90;;;;;;5091643;28;19916;-71
2023/08/23 02:16:36;;;;;;;;;;;19.60;99.90;;;;;;5092052;28;19927;-71
2023/08/23 02:19:02;;;;;;;;;;;19.50;99.90;;;;;;5091308;28;19920;-71
2023/08/23 02:21:28;;;;;;;;;;;19.60;99.90;;;;;;5091593;28;19912;-71
2023/08/23 02:23:54;;;;;;;;;;;19.60;99.90;;;;;;5091768;28;19908;-71
2023/08/23 02:26:19;;;;;;;;;;;19.60;99.90;;;;;;5091416;28;19920;-71
2023/08/23 02:28:45;;;;;;;;;;;19.50;99.90;;;;;;5093511;28;19999;-71
2023/08/23 02:31:11;;;;;;;;;;;19.50;99.90;;;;;;5095276;28;20269;-71
2023/08/23 02:33:36;;;;;;;;;;;19.50;99.90;;;;;;5095250;28;19928;-71
2023/08/23 02:36:02;;;;;;;;;;;19.50;99.90;;;;;;5095112;28;20253;-71
2023/08/23 02:38:27;;;;;;;;;;;19.50;99.90;;;;;;5095546;28;20160;-71
2023/08/23 02:40:56;;;;;;;;;;;19.40;99.90;;;;;;5095064;28;19916;-71
2023/08/23 02:43:22;;;;;;;;;;;19.30;99.90;;;;;;5095129;28;20246;-70
2023/08/23 02:45:47;;;;;;;;;;;19.30;99.90;;;;;;5095256;28;20266;-71
2023/08/23 02:48:13;;;;;;;;;;;19.20;99.90;;;;;;5094932;28;19919;-71
2023/08/23 02:50:39;;;;;;;;;;;19.10;99.90;;;;;;5095310;28;20012;-70
2023/08/23 02:53:04;;;;;;;;;;;19.10;99.90;;;;;;5094934;28;20362;-70
2023/08/23 02:55:30;;;;;;;;;;;19.00;99.90;;;;;;5094783;28;20263;-70
2023/08/23 02:57:55;;;;;;;;;;;19.00;99.90;;;;;;5094829;28;19913;-71
2023/08/23 03:00:21;;;;;;;;;;;19.00;99.90;;;;;;5094834;28;19920;-70
2023/08/23 03:02:46;;;;;;;;;;;18.90;99.90;;;;;;5095030;28;19912;-71
2023/08/23 03:05:12;;;;;;;;;;;18.90;99.90;;;;;;5094756;28;19955;-70
2023/08/23 03:07:38;;;;;;;;;;;18.80;99.90;;;;;;5094621;28;19999;-70
2023/08/23 03:10:03;;;;;;;;;;;18.80;99.90;;;;;;5094565;28;20235;-70
2023/08/23 03:12:29;;;;;;;;;;;18.70;99.90;;;;;;5094433;28;20011;-70
2023/08/23 03:14:55;;;;;;;;;;;18.70;99.90;;;;;;5094699;28;19908;-70
2023/08/23 03:17:20;;;;;;;;;;;18.70;99.90;;;;;;5094348;28;19957;-70
2023/08/23 03:19:46;;;;;;;;;;;18.70;99.90;;;;;;5094411;28;19927;-70
2023/08/23 03:22:11;;;;;;;;;;;18.70;99.90;;;;;;5094319;28;20520;-72
2023/08/23 03:24:37;;;;;;;;;;;18.60;99.90;;;;;;5094028;28;19913;-70
2023/08/23 03:27:02;;;;;;;;;;;18.50;99.90;;;;;;5093899;28;19908;-70
2023/08/23 03:29:28;;;;;;;;;;;18.50;99.90;;;;;;5094566;28;20262;-71
2023/08/23 03:31:54;;;;;;;;;;;18.50;99.90;;;;;;5093930;28;20402;-70
2023/08/23 03:34:19;;;;;;;;;;;18.50;99.90;;;;;;5093828;28;20015;-70
2023/08/23 03:36:45;;;;;;;;;;;18.40;99.90;;;;;;5094024;28;20260;-70
2023/08/23 03:39:10;;;;;;;;;;;18.50;99.90;;;;;;5093605;28;20399;-70
2023/08/23 03:41:36;;;;;;;;;;;18.40;99.90;;;;;;5094525;28;19908;-70
2023/08/23 03:44:01;;;;;;;;;;;18.40;99.90;;;;;;5094013;28;20166;-69
2023/08/23 03:46:27;;;;;;;;;;;18.40;99.90;;;;;;5094084;28;19912;-70
2023/08/23 03:48:52;;;;;;;;;;;18.40;99.90;;;;;;5093695;28;20007;-70
2023/08/23 03:51:18;;;;;;;;;;;18.40;99.90;;;;;;5093806;28;19918;-70
2023/08/23 03:53:43;;;;;;;;;;;18.40;99.90;;;;;;5094303;28;19908;-70
2023/08/23 03:56:09;;;;;;;;;;;18.40;99.90;;;;;;5094101;28;19963;-70
2023/08/23 03:58:35;;;;;;;;;;;18.40;99.90;;;;;;5093708;28;19916;-70
2023/08/23 04:01:01;;;;;;;;;;;18.30;99.90;;;;;;5093406;28;19931;-71
2023/08/23 04:03:26;;;;;;;;;;;18.30;99.90;;;;;;5093623;28;20333;-70
2023/08/23 04:05:52;;;;;;;;;;;18.30;99.90;;;;;;5094184;28;19964;-69
2023/08/23 04:08:17;;;;;;;;;;;18.30;99.90;;;;;;5093268;28;19912;-70
2023/08/23 04:10:49;;;;;;;;;;;18.20;99.90;;;;;;5093399;28;19968;-70
2023/08/23 04:13:15;;;;;;;;;;;18.20;99.90;;;;;;5093373;28;19912;-70
2023/08/23 04:15:41;;;;;;;;;;;18.20;99.90;;;;;;5093162;28;19912;-70
2023/08/23 04:18:06;;;;;;;;;;;18.30;99.90;;;;;;5092196;28;20249;-71
2023/08/23 04:20:32;;;;;;;;;;;18.20;99.90;;;;;;5093387;28;19916;-71
2023/08/23 04:22:58;;;;;;;;;;;18.20;99.90;;;;;;5093155;28;19912;-69
2023/08/23 04:25:23;;;;;;;;;;;18.20;99.90;;;;;;5093431;28;19912;-69
2023/08/23 04:27:49;;;;;;;;;;;18.20;99.90;;;;;;5093012;28;19995;-70
2023/08/23 04:30:14;;;;;;;;;;;18.20;99.90;;;;;;5093239;28;20329;-70
2023/08/23 04:32:40;;;;;;;;;;;18.10;99.90;;;;;;5093307;28;19908;-70
2023/08/23 04:35:05;;;;;;;;;;;18.10;99.90;;;;;;5092689;28;20354;-70
2023/08/23 04:37:31;;;;;;;;;;;18.10;99.90;;;;;;5092787;28;20235;-70
2023/08/23 04:39:56;;;;;;;;;;;18.10;99.90;;;;;;5092627;28;20358;-69
2023/08/23 04:42:22;;;;;;;;;;;18.10;99.90;;;;;;5092718;28;19935;-69
2023/08/23 04:44:48;;;;;;;;;;;18.10;99.90;;;;;;5093049;28;19916;-70
2023/08/23 04:47:13;;;;;;;;;;;18.10;99.90;;;;;;5092562;28;19912;-70
2023/08/23 04:49:39;;;;;;;;;;;18.20;99.90;;;;;;5092588;28;19912;-70
2023/08/23 04:52:04;;;;;;;;;;;18.20;99.90;;;;;;5091895;28;19913;-70
2023/08/23 04:54:30;;;;;;;;;;;18.20;99.90;;;;;;5092471;28;19912;-69
2023/08/23 04:56:55;;;;;;;;;;;18.20;99.90;;;;;;5092322;28;20301;-71
2023/08/23 04:59:21;;;;;;;;;;;18.30;99.90;;;;;;5092470;28;19916;-69
2023/08/23 05:01:46;;;;;;;;;;;18.20;99.90;;;;;;5092389;28;19916;-70
2023/08/23 05:04:12;;;;;;;;;;;18.20;99.90;;;;;;5092351;28;20270;-69
2023/08/23 05:06:39;;;;;;;;;;;18.20;99.90;;;;;;5092235;28;19912;-70
2023/08/23 05:09:05;;;;;;;;;;;18.20;99.90;;;;;;5091198;28;19919;-70
2023/08/23 05:11:31;;;;;;;;;;;18.20;99.90;;;;;;5092710;28;19908;-70
2023/08/23 05:13:57;;;;;;;;;;;18.30;99.90;;;;;;5092170;28;19916;-70
2023/08/23 05:16:22;;;;;;;;;;;18.30;99.90;;;;;;5092017;28;19985;-70
2023/08/23 05:18:48;;;;;;;;;;;18.30;99.90;;;;;;5091937;28;19947;-70
2023/08/23 05:21:14;;;;;;;;;;;18.40;99.90;;;;;;5090804;28;19908;-76
2023/08/23 05:23:39;;;;;;;;;;;18.40;99.90;;;;;;5092399;28;20238;-68
2023/08/23 05:26:05;;;;;;;;;;;18.50;99.90;;;;;;5091888;28;19912;-68
2023/08/23 05:28:32;;;;;;;;;;;18.50;99.90;;;;;;5091735;28;19916;-69
2023/08/23 05:31:00;;;;;;;;;;;18.50;99.90;;;;;;5091831;28;19912;-68
2023/08/23 05:33:25;;;;;;;;;;;18.50;99.90;;;;;;5091931;28;20013;-69
2023/08/23 05:35:51;;;;;;;;;;;18.50;99.90;;;;;;5092467;28;20010;-70
2023/08/23 05:38:17;;;;;;;;;;;18.60;99.90;;;;;;5091657;28;19926;-73
2023/08/23 05:40:44;;;;;;;;;;;18.70;99.90;;;;;;5091721;28;19970;-71
2023/08/23 05:43:10;;;;;;;;;;;18.70;99.90;;;;;;5091788;28;19956;-69
2023/08/23 05:45:35;;;;;;;;;;;18.70;99.90;;;;;;5090670;28;19923;-69
2023/08/23 05:48:01;;;;;;;;;;;18.70;99.90;;;;;;5091681;28;19916;-70
2023/08/23 05:50:27;;;;;;;;;;;18.80;99.90;;;;;;5092250;28;20010;-69
2023/08/23 05:52:53;;;;;;;;;;;18.90;99.90;;;;;;5091655;28;19916;-71
2023/08/23 05:55:19;;;;;;;;;;;19.00;99.90;;;;;;5091785;28;19923;-70
2023/08/23 05:57:44;;;;;;;;;;;19.00;99.90;;;;;;5090694;28;19912;-69
2023/08/23 06:00:10;;;;;;;;;;;19.10;99.90;;;;;;5091761;28;19912;-69
2023/08/23 06:02:36;;;;;;;;;;;19.20;99.90;;;;;;5094156;28;19909;-70
2023/08/23 06:05:02;;;;;;;;;;;19.10;99.90;;;;;;5095808;28;19917;-70
2023/08/23 06:07:28;;;;;;;;;;;19.20;99.90;;;;;;5094809;28;19913;-70
2023/08/23 06:09:53;;;;;;;;;;;19.30;99.90;;;;;;5095914;28;19912;-70
2023/08/23 06:12:19;;;;;;;;;;;19.30;99.90;;;;;;5095779;28;20003;-70
2023/08/23 06:14:44;;;;;;;;;;;19.50;99.90;;;;;;5096299;28;19908;-70
2023/08/23 06:17:10;;;;;;;;;;;19.50;99.90;;;;;;5094830;28;19924;-70
2023/08/23 06:19:36;;;;;;;;;;;19.60;99.90;;;;;;5095678;28;19962;-71
2023/08/23 06:22:01;;;;;;;;;;;19.60;99.90;;;;;;5094848;28;20342;-69
2023/08/23 06:24:27;;;;;;;;;;;19.70;99.90;;;;;;5095228;28;19912;-70
2023/08/23 06:26:53;;;;;;;;;;;19.80;99.90;;;;;;5095943;28;19912;-69
2023/08/23 06:29:19;;;;;;;;;;;19.90;99.90;;;;;;5094387;28;19991;-69
2023/08/23 06:31:44;;;;;;;;;;;20.00;99.90;;;;;;5094243;28;19940;-70
2023/08/23 06:34:10;;;;;;;;;;;20.10;99.90;;;;;;5095023;28;19928;-70
2023/08/23 06:36:36;;;;;;;;;;;20.10;99.90;;;;;;5094183;28;19934;-69
2023/08/23 06:39:02;;;;;;;;;;;20.20;99.90;;;;;;5095666;28;20386;-71
2023/08/23 06:41:28;;;;;;;;;;;20.30;99.90;;;;;;5095850;28;19991;-69
2023/08/23 06:44:00;;;;;;;;;;;20.40;99.90;;;;;;5095043;28;20000;-70
2023/08/23 06:46:26;;;;;;;;;;;20.40;99.90;;;;;;5094116;28;19912;-70
2023/08/23 06:48:52;;;;;;;;;;;20.40;99.90;;;;;;5095032;28;20361;-69
2023/08/23 06:51:17;;;;;;;;;;;20.60;99.90;;;;;;5094853;28;19923;-70
2023/08/23 06:53:43;;;;;;;;;;;20.60;99.90;;;;;;5095422;28;19908;-70
2023/08/23 06:56:09;;;;;;;;;;;20.70;99.90;;;;;;5094870;28;19999;-69
2023/08/23 06:58:35;;;;;;;;;;;20.70;99.90;;;;;;5094678;28;20057;-70
2023/08/23 07:01:01;;;;;;;;;;;20.90;99.90;;;;;;5094713;28;19979;-69
2023/08/23 07:03:26;;;;;;;;;;;21.00;99.90;;;;;;5094938;28;19999;-69
2023/08/23 07:05:52;;;;;;;;;;;21.00;99.90;;;;;;5095025;28;20010;-69
2023/08/23 07:08:18;;;;;;;;;;;21.10;99.90;;;;;;5093769;28;19923;-69
2023/08/23 07:10:43;;;;;;;;;;;21.20;99.90;;;;;;5099104;28;19919;-68
2023/08/23 07:13:09;;;;;;;;;;;21.30;99.90;;;;;;5098105;28;19920;-70
2023/08/23 07:15:35;;;;;;;;;;;21.30;99.90;;;;;;5094778;28;20338;-68
2023/08/23 07:18:01;;;;;;;;;;;21.30;99.90;;;;;;5094631;28;20325;-69
2023/08/23 07:20:27;;;;;;;;;;;21.40;99.90;;;;;;5095342;28;19912;-69
2023/08/23 07:22:52;;;;;;;;;;;21.50;99.90;;;;;;5094313;28;20267;-69
2023/08/23 07:25:18;;;;;;;;;;;21.60;99.90;;;;;;5094598;28;19962;-68
2023/08/23 07:27:44;;;;;;;;;;;21.70;99.90;;;;;;5094651;28;19920;-68
2023/08/23 07:30:10;;;;;;;;;;;21.60;99.90;;;;;;5094298;28;19995;-69
2023/08/23 07:32:35;;;;;;;;;;;21.60;99.90;;;;;;5095018;28;19904;-68
2023/08/23 07:35:01;;;;;;;;;;;21.90;99.90;;;;;;5094195;28;19939;-68
2023/08/23 07:37:27;;;;;;;;;;;22.00;99.90;;;;;;5094333;28;19939;-68
2023/08/23 07:39:53;;;;;;;;;;;21.80;99.90;;;;;;5093816;28;20266;-69
2023/08/23 07:42:18;;;;;;;;;;;21.80;99.90;;;;;;5092895;28;19923;-68
2023/08/23 07:44:44;;;;;;;;;;;21.90;99.90;;;;;;5094088;28;19908;-67
2023/08/23 07:47:10;;;;;;;;;;;22.00;99.90;;;;;;5094070;28;19913;-68
2023/08/23 07:49:35;;;;;;;;;;;22.10;99.90;;;;;;5092828;28;19923;-68
2023/08/23 07:52:01;;;;;;;;;;;22.20;99.90;;;;;;5093851;28;19916;-69
2023/08/23 07:54:27;;;;;;;;;;;22.30;99.90;;;;;;5093599;28;19916;-68
2023/08/23 07:56:52;;;;;;;;;;;22.50;99.90;;;;;;5093939;28;19912;-68
2023/08/23 07:59:18;;;;;;;;;;;22.50;99.90;;;;;;5093547;28;19927;-69
2023/08/23 08:01:43;;;;;;;;;;;22.60;99.90;;;;;;5093498;28;19999;-68
2023/08/23 08:04:09;;;;;;;;;;;22.70;99.90;;;;;;5093451;28;19913;-68
2023/08/23 08:06:34;;;;;;;;;;;22.80;99.90;;;;;;5092291;28;20272;-68
2023/08/23 08:09:00;;;;;;;;;;;22.80;99.90;;;;;;5092301;28;19916;-68
2023/08/23 08:11:25;;;;;;;;;;;22.80;99.90;;;;;;5093664;28;19930;-69
2023/08/23 08:13:51;;;;;;;;;;;22.80;99.90;;;;;;5093515;28;19930;-69
2023/08/23 08:16:17;;;;;;;;;;;22.90;99.90;;;;;;5093161;28;19995;-70
2023/08/23 08:18:45;;;;;;;;;;;22.90;99.90;;;;;;5093093;28;19916;-68
2023/08/23 08:21:11;;;;;;;;;;;23.10;99.90;;;;;;5093375;28;19912;-67
2023/08/23 08:23:36;;;;;;;;;;;23.20;99.50;;;;;;5093627;28;20313;-68
2023/08/23 08:26:02;;;;;;;;;;;23.30;99.00;;;;;;5092095;28;19924;-68
2023/08/23 08:28:28;;;;;;;;;;;23.40;99.00;;;;;;5091918;28;19920;-69
2023/08/23 08:30:53;;;;;;;;;;;23.90;99.30;;;;;;5093015;28;19930;-69
2023/08/23 08:33:19;;;;;;;;;;;24.10;98.70;;;;;;5092852;28;19931;-69
2023/08/23 08:35:45;;;;;;;;;;;23.80;98.40;;;;;;5093246;28;19934;-68
2023/08/23 08:38:10;;;;;;;;;;;23.90;98.80;;;;;;5093024;28;19912;-68
2023/08/23 08:40:37;;;;;;;;;;;24.00;98.60;;;;;;5092870;28;19920;-69
2023/08/23 08:43:02;;;;;;;;;;;24.30;98.10;;;;;;5092860;28;20267;-69
2023/08/23 08:45:28;;;;;;;;;;;24.50;97.90;;;;;;5092563;28;19912;-70
2023/08/23 08:47:54;;;;;;;;;;;25.10;97.10;;;;;;5093084;28;19908;-70
2023/08/23 08:50:19;;;;;;;;;;;25.30;96.60;;;;;;5092793;28;19924;-68
2023/08/23 08:52:49;;;;;;;;;;;25.40;96.50;;;;;;5092456;28;19912;-68
2023/08/23 08:55:15;;;;;;;;;;;25.60;96.90;;;;;;5092505;28;19912;-69
2023/08/23 08:57:42;;;;;;;;;;;25.80;96.20;;;;;;5092710;28;19916;-69
2023/08/23 09:00:08;;;;;;;;;;;25.30;95.90;;;;;;5092725;28;19969;-69
2023/08/23 09:02:34;;;;;;;;;;;24.60;96.30;;;;;;5093031;28;19983;-69
2023/08/23 09:05:00;;;;;;;;;;;24.60;97.20;;;;;;5092436;28;19939;-69
2023/08/23 09:07:25;;;;;;;;;;;25.70;96.40;;;;;;5092387;28;20337;-69
2023/08/23 09:09:51;;;;;;;;;;;27.10;95.00;;;;;;5092417;28;19951;-70
2023/08/23 09:12:16;;;;;;;;;;;27.60;93.10;;;;;;5092237;28;20329;-69
2023/08/23 09:14:47;;;;;;;;;;;27.70;92.70;;;;;;5093014;28;19999;-70
2023/08/23 09:17:12;;;;;;;;;;;28.80;92.40;;;;;;5091382;28;19996;-70
2023/08/23 09:19:41;;;;;;;;;;;28.20;91.20;;;;;;5092197;28;20011;-70
2023/08/23 09:22:07;;;;;;;;;;;29.40;91.40;;;;;;5092499;28;19927;-70
2023/08/23 09:24:33;;;;;;;;;;;29.90;90.50;;;;;;5092189;28;19920;-69
2023/08/23 09:26:59;;;;;;;;;;;31.00;88.10;;;;;;5091991;28;19909;-69
2023/08/23 09:29:25;;;;;;;;;;;31.60;84.10;;;;;;5092984;28;19969;-70
2023/08/23 09:31:50;;;;;;;;;;;31.10;82.50;;;;;;5092147;28;19923;-68
2023/08/23 09:34:16;;;;;;;;;;;31.80;82.10;;;;;;5091965;28;20381;-69
2023/08/23 09:36:42;;;;;;;;;;;30.30;80.80;;;;;;5091511;28;19920;-70
2023/08/23 09:39:11;;;;;;;;;;;30.80;82.70;;;;;;5092360;28;19999;-69
2023/08/23 09:41:38;;;;;;;;;;;32.10;81.50;;;;;;5092636;28;20328;-70
2023/08/23 09:44:04;;;;;;;;;;;32.40;79.50;;;;;;5091998;28;20261;-69
2023/08/23 09:46:33;;;;;;;;;;;33.30;76.50;;;;;;5092101;28;19912;-69
2023/08/23 09:48:58;;;;;;;;;;;33.50;74.50;;;;;;5092125;28;19935;-69
2023/08/23 09:51:24;;;;;;;;;;;33.80;73.40;;;;;;5090799;28;20283;-70
2023/08/23 09:53:56;;;;;;;;;;;34.90;70.20;;;;;;5092724;28;20254;-70
2023/08/23 09:56:22;;;;;;;;;;;34.40;72.10;;;;;;5090929;28;20003;-69
2023/08/23 09:58:48;;;;;;;;;;;34.00;68.90;;;;;;5090655;28;20058;-70
2023/08/23 10:01:18;;;;;;;;;;;34.10;68.40;;;;;;5091806;28;19931;-69
2023/08/23 10:03:43;;;;;;;;;;;32.30;67.80;;;;;;5091772;28;20185;-69
2023/08/23 10:06:09;;;;;;;;;;;32.00;72.00;;;;;;5090545;28;19908;-69
2023/08/23 10:08:38;;;;;;;;;;;33.20;67.50;;;;;;5092638;28;19919;-70
2023/08/23 10:11:04;;;;;;;;;;;33.00;68.60;;;;;;5091592;28;19916;-69
2023/08/23 10:13:31;;;;;;;;;;;33.90;65.80;;;;;;5090611;28;20350;-69
2023/08/23 10:15:57;;;;;;;;;;;34.70;64.00;;;;;;5091480;28;19944;-69
2023/08/23 10:18:23;;;;;;;;;;;34.50;63.20;;;;;;5091447;28;19919;-69
2023/08/23 10:20:50;;;;;;;;;;;33.60;63.90;;;;;;5091872;28;19912;-70
2023/08/23 10:23:16;;;;;;;;;;;34.50;64.00;;;;;;5091504;28;19912;-69
2023/08/23 10:25:43;;;;;;;;;;;34.50;62.00;;;;;;5091490;28;19916;-69
2023/08/23 10:28:11;;;;;;;;;;;33.90;62.80;;;;;;5091476;28;19999;-69
2023/08/23 10:30:39;;;;;;;;;;;34.00;62.60;;;;;;5091122;28;19932;-69
2023/08/23 10:33:08;;;;;;;;;;;34.40;64.10;;;;;;5091204;28;19922;-69
2023/08/23 10:35:34;;;;;;;;;;;34.30;61.60;;;;;;5090486;28;19944;-70
2023/08/23 10:38:02;;;;;;;;;;;33.80;62.40;;;;;;5091396;28;19923;-70
2023/08/23 10:40:28;;;;;;;;;;;34.00;62.60;;;;;;5091204;28;19916;-70
2023/08/23 10:42:54;;;;;;;;;;;34.40;62.70;;;;;;5091028;28;19973;-70
2023/08/23 10:45:19;;;;;;;;;;;34.00;62.20;;;;;;5091433;28;19916;-69
2023/08/23 10:47:48;;;;;;;;;;;32.30;64.60;;;;;;5090640;28;20254;-69
2023/08/23 10:50:14;;;;;;;;;;;32.50;65.00;;;;;;5093932;28;19976;-69
2023/08/23 10:52:40;;;;;;;;;;;32.20;65.20;;;;;;5095180;28;20334;-70
2023/08/23 10:55:06;;;;;;;;;;;31.90;66.00;;;;;;5095103;28;19923;-70
2023/08/23 10:57:31;;;;;;;;;;;31.70;66.20;;;;;;5094990;28;19923;-69
2023/08/23 10:59:56;;;;;;;;;;;31.20;67.20;;;;;;5094888;28;20393;-70
2023/08/23 11:02:22;;;;;;;;;;;30.20;67.50;;;;;;5095095;28;19912;-70
2023/08/23 11:04:48;;;;;;;;;;;30.00;68.60;;;;;;5094820;28;19973;-70
2023/08/23 11:07:14;;;;;;;;;;;30.00;68.80;;;;;;5094657;28;19984;-70
2023/08/23 11:09:40;;;;;;;;;;;30.20;68.00;;;;;;5093643;28;20311;-70
2023/08/23 11:12:06;;;;;;;;;;;30.00;67.30;;;;;;5093512;28;19923;-70
2023/08/23 11:14:32;;;;;;;;;;;29.60;67.00;;;;;;5094979;28;19920;-70
2023/08/23 11:16:57;;;;;;;;;;;29.40;68.00;;;;;;5094652;28;19974;-71
2023/08/23 11:19:23;;;;;;;;;;;29.10;68.90;;;;;;5094337;28;19928;-70
2023/08/23 11:21:48;;;;;;;;;;;28.90;70.10;;;;;;5094451;28;20026;-70
2023/08/23 11:24:14;;;;;;;;;;;28.90;70.70;;;;;;5094352;28;20313;-70
2023/08/23 11:26:40;;;;;;;;;;;28.90;71.20;;;;;;5095190;28;19912;-70
2023/08/23 11:29:05;;;;;;;;;;;28.80;71.40;;;;;;5094509;28;19977;-70
2023/08/23 11:31:34;;;;;;;;;;;28.60;72.00;;;;;;5094069;28;20346;-69
2023/08/23 11:34:05;;;;;;;;;;;28.60;72.40;;;;;;5093908;28;19935;-70
2023/08/23 11:36:31;;;;;;;;;;;28.60;72.50;;;;;;5093833;28;19912;-69
2023/08/23 11:38:59;;;;;;;;;;;28.60;72.50;;;;;;5093634;28;20322;-70
2023/08/23 11:41:28;;;;;;;;;;;28.40;73.30;;;;;;5094050;28;19916;-70
2023/08/23 11:43:54;;;;;;;;;;;28.50;73.50;;;;;;5092722;28;20010;-69
2023/08/23 11:46:20;;;;;;;;;;;28.50;72.00;;;;;;5094012;28;20003;-69
2023/08/23 11:48:45;;;;;;;;;;;28.40;71.70;;;;;;5094023;28;19912;-69
2023/08/23 11:51:11;;;;;;;;;;;28.20;72.10;;;;;;5092515;28;19909;-69
2023/08/23 11:53:36;;;;;;;;;;;28.00;72.60;;;;;;5094298;28;20274;-69
2023/08/23 11:56:05;;;;;;;;;;;28.00;72.60;;;;;;5093736;28;20266;-67
2023/08/23 11:58:31;;;;;;;;;;;27.90;72.60;;;;;;5093595;28;19923;-69
2023/08/23 12:00:57;;;;;;;;;;;27.90;73.10;;;;;;5093489;28;20334;-69
2023/08/23 12:03:22;;;;;;;;;;;27.60;73.10;;;;;;5093618;28;19991;-69
2023/08/23 12:05:48;;;;;;;;;;;27.50;73.10;;;;;;5094178;28;20021;-70
2023/08/23 12:08:13;;;;;;;;;;;27.60;73.30;;;;;;5093488;28;19927;-69
2023/08/23 12:10:39;;;;;;;;;;;27.80;72.90;;;;;;5092343;28;20235;-69
2023/08/23 12:13:04;;;;;;;;;;;27.90;72.60;;;;;;5093307;28;19916;-69
2023/08/23 12:15:31;;;;;;;;;;;28.10;72.20;;;;;;5093558;28;19958;-70
2023/08/23 12:17:57;;;;;;;;;;;28.10;72.90;;;;;;5093541;28;19912;-69
2023/08/23 12:20:23;;;;;;;;;;;28.20;72.40;;;;;;5092507;28;20316;-69
2023/08/23 12:22:50;;;;;;;;;;;28.20;72.40;;;;;;5093090;28;19919;-68
2023/08/23 12:25:16;;;;;;;;;;;28.00;72.00;;;;;;5093182;28;20356;-69
2023/08/23 12:27:42;;;;;;;;;;;27.80;71.70;;;;;;5093111;28;19995;-69
2023/08/23 12:30:09;;;;;;;;;;;27.60;71.40;;;;;;5093057;28;20003;-69
2023/08/23 12:32:35;;;;;;;;;;;27.70;72.30;;;;;;5093484;28;19958;-70
2023/08/23 12:35:01;;;;;;;;;;;27.80;72.30;;;;;;5093273;28;19928;-70
2023/08/23 12:37:27;;;;;;;;;;;27.80;72.10;;;;;;5093032;28;19916;-69
2023/08/23 12:39:52;;;;;;;;;;;27.80;72.00;;;;;;5092830;28;19927;-70
2023/08/23 12:42:18;;;;;;;;;;;27.80;70.90;;;;;;5092695;28;19975;-69
2023/08/23 12:44:43;;;;;;;;;;;27.80;71.10;;;;;;5093280;28;19908;-69
2023/08/23 12:47:09;;;;;;;;;;;27.60;72.80;;;;;;5092869;28;19912;-68
2023/08/23 12:49:35;;;;;;;;;;;27.70;72.70;;;;;;5091561;28;20262;-68
2023/08/23 12:52:00;;;;;;;;;;;27.70;73.00;;;;;;5092563;28;20369;-69
2023/08/23 12:54:26;;;;;;;;;;;27.70;73.00;;;;;;5092259;28;19912;-69
2023/08/23 12:56:51;;;;;;;;;;;27.80;73.10;;;;;;5093608;28;20249;-68
2023/08/23 12:59:17;;;;;;;;;;;27.60;72.80;;;;;;5092390;28;19920;-69
2023/08/23 13:01:42;;;;;;;;;;;27.60;73.40;;;;;;5092490;28;19916;-69
2023/08/23 13:04:09;;;;;;;;;;;27.40;73.70;;;;;;5092437;28;19984;-69
2023/08/23 13:06:34;;;;;;;;;;;27.50;73.40;;;;;;5092458;28;19955;-69
2023/08/23 13:09:00;;;;;;;;;;;27.30;73.00;;;;;;5092271;28;19959;-69
2023/08/23 13:11:25;;;;;;;;;;;27.30;73.50;;;;;;5091898;28;19914;-69
2023/08/23 13:13:52;;;;;;;;;;;27.30;72.70;;;;;;5092167;28;19912;-68
2023/08/23 13:16:18;;;;;;;;;;;27.20;73.20;;;;;;5092372;28;20368;-69
2023/08/23 13:18:43;;;;;;;;;;;27.40;73.40;;;;;;5092100;28;19924;-69
2023/08/23 13:21:09;;;;;;;;;;;27.60;73.70;;;;;;5091944;28;20252;-69
2023/08/23 13:23:34;;;;;;;;;;;27.40;73.50;;;;;;5092097;28;20259;-68
2023/08/23 13:26:00;;;;;;;;;;;27.30;73.50;;;;;;5092025;28;19920;-69
2023/08/23 13:28:26;;;;;;;;;;;27.20;73.70;;;;;;5092012;28;20003;-69
2023/08/23 13:30:51;;;;;;;;;;;27.10;73.80;;;;;;5091710;28;19916;-69
2023/08/23 13:33:17;;;;;;;;;;;27.00;73.30;;;;;;5091623;28;19931;-68
2023/08/23 13:35:43;;;;;;;;;;;27.00;73.50;;;;;;5092289;28;20464;-69
2023/08/23 13:38:09;;;;;;;;;;;26.90;73.30;;;;;;5091664;28;19923;-69
2023/08/23 13:40:34;;;;;;;;;;;27.00;73.20;;;;;;5091818;28;19916;-69
2023/08/23 13:43:00;;;;;;;;;;;27.10;72.80;;;;;;5090680;28;19962;-69
2023/08/23 13:45:25;;;;;;;;;;;26.90;72.80;;;;;;5090716;28;19919;-68
2023/08/23 13:47:51;;;;;;;;;;;26.90;73.10;;;;;;5091986;28;19912;-68
2023/08/23 13:50:17;;;;;;;;;;;27.00;72.50;;;;;;5091696;28;19974;-68
2023/08/23 13:52:43;;;;;;;;;;;27.00;72.30;;;;;;5091802;28;19912;-69
2023/08/23 13:55:09;;;;;;;;;;;27.00;71.80;;;;;;5092014;28;20230;-69
2023/08/23 13:57:35;;;;;;;;;;;26.90;71.70;;;;;;5091763;28;19967;-69
2023/08/23 14:00:01;;;;;;;;;;;26.80;71.60;;;;;;5091635;28;19940;-70
2023/08/23 14:02:26;;;;;;;;;;;26.90;72.20;;;;;;5092274;28;19958;-68
2023/08/23 14:04:52;;;;;;;;;;;26.90;72.10;;;;;;5091736;28;19912;-69
2023/08/23 14:07:17;;;;;;;;;;;26.90;72.20;;;;;;5091494;28;19924;-68
2023/08/23 14:09:43;;;;;;;;;;;27.00;72.40;;;;;;5091620;28;20431;-68